Time;durP1;ratioP1;P1;durP2;ratioP2;P2;SDS_P1;SDS_P2;PMS_P1;PMS_P2;Temp;Humidity;BMP_temperature;BMP_pressure;BME280_temperature;BME280_humidity;BME280_pressure;Samples;Min_cycle;Max_cycle;Signal;HPM_P1;HPM_P2
2023/04/02 00:01:22;;;;;;;8.80;7.90;;;9.10;99.90;;;;;;4947610;29;20031;-94
2023/04/02 00:03:58;;;;;;;8.05;7.35;;;9.10;99.90;;;;;;4929729;29;20099;-93
2023/04/02 00:06:31;;;;;;;8.55;7.57;;;9.00;99.90;;;;;;4934594;29;20034;-94
2023/04/02 00:09:00;;;;;;;8.23;7.43;;;9.10;99.90;;;;;;4935319;29;20024;-93
2023/04/02 00:11:36;;;;;;;10.80;9.00;;;9.10;99.90;;;;;;4936212;29;20141;-92
2023/04/02 00:14:04;;;;;;;8.60;7.90;;;9.10;99.90;;;;;;4937478;29;20484;-93
2023/04/02 00:16:30;;;;;;;9.40;8.48;;;9.10;99.90;;;;;;4939394;29;20023;-92
2023/04/02 00:19:02;;;;;;;14.23;8.20;;;9.00;99.90;;;;;;4936655;29;20055;-92
2023/04/02 00:21:31;;;;;;;10.23;8.23;;;9.10;99.90;;;;;;4936626;29;20032;-93
2023/04/02 00:24:00;;;;;;;8.75;7.88;;;9.00;99.90;;;;;;4936466;29;20040;-92
2023/04/02 00:26:30;;;;;;;8.50;7.70;;;9.10;99.90;;;;;;4936154;29;20515;-92
2023/04/02 00:28:58;;;;;;;9.57;8.57;;;9.20;99.90;;;;;;4936248;29;20115;-92
2023/04/02 00:31:24;;;;;;;14.25;9.50;;;9.10;99.90;;;;;;4939627;29;20036;-92
2023/04/02 00:33:49;;;;;;;13.30;8.65;;;9.00;99.90;;;;;;4935625;29;20028;-92
2023/04/02 00:36:18;;;;;;;10.98;8.75;;;9.10;99.90;;;;;;4936366;29;20024;-92
2023/04/02 00:38:45;;;;;;;12.15;8.27;;;9.00;99.90;;;;;;4935893;29;20120;-92
2023/04/02 00:41:16;;;;;;;11.85;8.38;;;9.00;99.90;;;;;;4935811;29;20046;-91
2023/04/02 00:43:45;;;;;;;10.95;8.63;;;9.10;99.90;;;;;;4935899;29;20075;-91
2023/04/02 00:46:14;;;;;;;9.93;8.90;;;9.20;99.90;;;;;;4936317;29;20036;-91
2023/04/02 00:49:02;;;;;;;9.68;8.68;;;9.00;99.90;;;;;;4936724;29;20035;-91
2023/04/02 00:52:01;;;;;;;9.55;8.65;;;8.90;99.90;;;;;;4940050;29;20028;-92
2023/04/02 00:54:32;;;;;;;11.38;8.48;;;9.00;99.90;;;;;;4939428;29;20028;-91
2023/04/02 00:56:58;;;;;;;11.57;8.57;;;9.10;99.90;;;;;;4940021;29;20024;-93
2023/04/02 00:59:41;;;;;;;11.55;8.40;;;9.10;99.90;;;;;;4939729;29;20027;-94
2023/04/02 01:02:13;;;;;;;10.15;8.25;;;9.20;99.90;;;;;;4938921;29;20065;-92
2023/04/02 01:04:40;;;;;;;12.02;9.60;;;9.20;99.90;;;;;;4939294;29;20028;-92
2023/04/02 01:07:09;;;;;;;9.32;8.00;;;9.10;99.90;;;;;;4939373;29;20030;-92
2023/04/02 01:09:38;;;;;;;14.00;9.00;;;9.00;99.90;;;;;;4939221;29;20556;-91
2023/04/02 01:12:28;;;;;;;14.60;9.15;;;8.90;99.90;;;;;;4939332;29;20510;-92
2023/04/02 01:14:56;;;;;;;12.90;9.90;;;8.80;99.90;;;;;;4938662;29;20027;-92
2023/04/02 01:17:36;;;;;;;10.85;8.77;;;8.80;99.90;;;;;;4939799;29;20110;-91
2023/04/02 01:20:29;;;;;;;11.17;7.97;;;8.70;99.90;;;;;;4939541;29;20038;-91
2023/04/02 01:23:27;;;;;;;9.88;8.55;;;8.70;99.90;;;;;;4938408;29;20791;-92
2023/04/02 01:26:05;;;;;;;11.63;8.75;;;8.80;99.90;;;;;;4913035;29;20036;-92
2023/04/02 01:28:44;;;;;;;11.82;8.32;;;8.80;99.90;;;;;;4938970;29;20035;-92
2023/04/02 01:31:10;;;;;;;10.52;8.35;;;8.80;99.90;;;;;;4938806;29;20040;-92
2023/04/02 01:33:40;;;;;;;12.00;8.70;;;8.70;99.90;;;;;;4938747;29;20032;-91
2023/04/02 01:36:35;;;;;;;13.32;9.48;;;8.60;99.90;;;;;;4938812;29;20055;-91
2023/04/02 01:39:32;;;;;;;10.02;8.98;;;8.60;99.90;;;;;;4938933;29;20036;-90
2023/04/02 01:42:18;;;;;;;18.95;9.32;;;8.60;99.90;;;;;;4938930;29;20043;-92
2023/04/02 01:44:51;;;;;;;17.10;9.73;;;8.50;99.90;;;;;;4938820;29;20031;-91
2023/04/02 01:47:21;;;;;;;13.52;9.35;;;8.50;99.90;;;;;;4939070;29;20063;-92
2023/04/02 01:49:47;;;;;;;13.63;9.27;;;8.50;99.90;;;;;;4951816;28;20027;-91
2023/04/02 01:52:16;;;;;;;9.52;8.45;;;8.60;99.90;;;;;;4945548;29;20428;-91
2023/04/02 01:54:42;;;;;;;10.35;8.07;;;8.70;99.90;;;;;;4939687;29;20031;-92
2023/04/02 01:57:08;;;;;;;11.25;8.93;;;8.80;99.90;;;;;;4952444;29;20073;-91
2023/04/02 01:59:34;;;;;;;9.43;8.52;;;8.90;99.90;;;;;;4957033;28;20035;-90
2023/04/02 02:02:10;;;;;;;13.32;9.27;;;8.80;99.90;;;;;;4957371;29;20527;-91
2023/04/02 02:04:36;;;;;;;13.77;8.60;;;8.80;99.90;;;;;;4956668;29;20031;-93
2023/04/02 02:07:03;;;;;;;9.93;8.35;;;8.80;99.90;;;;;;4949157;23;20569;-91
2023/04/02 02:09:34;;;;;;;11.32;8.20;;;8.80;99.90;;;;;;4938525;29;20019;-91
2023/04/02 02:12:01;;;;;;;12.50;9.40;;;8.70;99.90;;;;;;4937900;29;20399;-91
2023/04/02 02:14:29;;;;;;;11.90;8.65;;;8.70;99.90;;;;;;4938450;29;20038;-90
2023/04/02 02:17:01;;;;;;;11.75;9.05;;;8.80;99.90;;;;;;4938252;29;20054;-92
2023/04/02 02:19:35;;;;;;;11.77;8.35;;;8.80;99.90;;;;;;4937056;29;20484;-91
2023/04/02 02:22:08;;;;;;;9.80;7.72;;;8.90;99.90;;;;;;4938431;29;20091;-91
2023/04/02 02:24:35;;;;;;;7.63;6.82;;;8.90;99.90;;;;;;4938522;29;20024;-92
2023/04/02 02:27:08;;;;;;;11.35;8.60;;;8.90;99.90;;;;;;4938108;29;20031;-93
2023/04/02 02:29:37;;;;;;;10.60;8.15;;;8.80;99.90;;;;;;4937933;29;20028;-91
2023/04/02 02:32:05;;;;;;;10.90;7.35;;;8.80;99.90;;;;;;4938471;29;20036;-91
2023/04/02 02:34:36;;;;;;;10.40;7.38;;;8.80;99.90;;;;;;4937954;29;20083;-92
2023/04/02 02:37:13;;;;;;;14.02;7.47;;;8.80;99.90;;;;;;4937944;29;20035;-91
2023/04/02 02:39:42;;;;;;;8.07;7.28;;;8.80;99.90;;;;;;4939330;29;20019;-91
2023/04/02 02:42:18;;;;;;;10.05;7.65;;;8.70;99.90;;;;;;4939584;29;20099;-91
2023/04/02 02:44:48;;;;;;;9.10;7.22;;;8.80;99.90;;;;;;4939788;29;20159;-91
2023/04/02 02:47:20;;;;;;;22.25;8.13;;;8.80;99.90;;;;;;4937707;29;20035;-92
2023/04/02 02:49:51;;;;;;;8.88;7.28;;;8.80;99.90;;;;;;4937562;29;20035;-91
2023/04/02 02:52:20;;;;;;;12.55;7.55;;;8.70;99.90;;;;;;4938110;29;20034;-92
2023/04/02 02:55:00;;;;;;;9.52;6.70;;;8.70;99.90;;;;;;4936860;29;20038;-91
2023/04/02 02:57:34;;;;;;;9.88;7.22;;;8.60;99.90;;;;;;4937969;29;20031;-90
2023/04/02 03:00:00;;;;;;;8.48;6.88;;;8.60;99.90;;;;;;4937657;29;20046;-91
2023/04/02 03:02:27;;;;;;;10.32;6.85;;;8.50;99.90;;;;;;4937187;29;20087;-92
2023/04/02 03:04:54;;;;;;;7.57;6.47;;;8.40;99.90;;;;;;4940345;29;20031;-92
2023/04/02 03:07:24;;;;;;;11.00;7.15;;;8.30;99.90;;;;;;4955540;29;20399;-91
2023/04/02 03:10:04;;;;;;;10.52;7.43;;;8.40;99.90;;;;;;4956515;29;20028;-91
2023/04/02 03:12:51;;;;;;;11.68;7.25;;;8.50;99.90;;;;;;4956479;28;20027;-91
2023/04/02 03:15:26;;;;;;;12.80;7.70;;;8.50;99.90;;;;;;4956034;29;20522;-91
2023/04/02 03:18:10;;;;;;;10.35;7.43;;;8.40;99.90;;;;;;4956543;29;20086;-90
2023/04/02 03:20:51;;;;;;;7.72;6.65;;;8.40;99.90;;;;;;4956623;29;20059;-92
2023/04/02 03:23:26;;;;;;;12.15;7.60;;;8.40;99.90;;;;;;4956088;29;20035;-91
2023/04/02 03:26:00;;;;;;;8.85;6.75;;;8.50;99.90;;;;;;4955942;29;20365;-91
2023/04/02 03:28:30;;;;;;;8.48;7.10;;;8.50;99.90;;;;;;4956344;29;20042;-90
2023/04/02 03:31:01;;;;;;;13.18;7.28;;;8.60;99.90;;;;;;4956857;29;20019;-91
2023/04/02 03:33:31;;;;;;;7.60;6.45;;;8.60;99.90;;;;;;4955142;23;20064;-92
2023/04/02 03:36:11;;;;;;;7.07;6.38;;;8.70;99.90;;;;;;4936596;29;20023;-92
2023/04/02 03:38:43;;;;;;;8.23;6.43;;;8.70;99.90;;;;;;4937461;29;20035;-91
2023/04/02 03:41:12;;;;;;;7.93;6.45;;;8.70;99.90;;;;;;4953662;28;20031;-91
2023/04/02 03:43:46;;;;;;;7.35;6.30;;;8.80;99.90;;;;;;4940071;29;20032;-90
2023/04/02 03:46:43;;;;;;;9.75;5.88;;;8.60;99.90;;;;;;4937165;29;20036;-91
2023/04/02 03:49:37;;;;;;;8.93;5.75;;;8.60;99.90;;;;;;4937304;29;20043;-91
2023/04/02 03:52:27;;;;;;;7.53;6.13;;;8.40;99.90;;;;;;4932093;29;20039;-91
2023/04/02 03:54:59;;;;;;;10.00;7.07;;;8.20;99.90;;;;;;4936668;29;20110;-92
2023/04/02 03:58:20;;;;;;;11.27;7.05;;;8.20;99.90;;;;;;4936605;29;20510;-92
2023/04/02 04:01:13;;;;;;;7.72;6.35;;;8.20;99.90;;;;;;4843400;29;20029;-91
2023/04/02 04:03:52;;;;;;;8.05;6.13;;;8.30;99.90;;;;;;4841375;29;20048;-92
2023/04/02 04:06:28;;;;;;;8.40;6.63;;;8.30;99.90;;;;;;4911691;29;20106;-91
2023/04/02 04:09:05;;;;;;;7.13;6.43;;;8.20;99.90;;;;;;4936779;29;20488;-91
2023/04/02 04:11:35;;;;;;;8.20;6.07;;;8.10;99.90;;;;;;4937612;29;20028;-91
2023/04/02 04:14:04;;;;;;;9.95;6.15;;;8.10;99.90;;;;;;4938092;29;20034;-93
2023/04/02 04:16:40;;;;;;;9.57;6.00;;;8.00;99.90;;;;;;4936707;29;20086;-91
2023/04/02 04:19:16;;;;;;;8.13;6.20;;;8.00;99.90;;;;;;4936652;29;20103;-92
2023/04/02 04:21:44;;;;;;;8.40;6.07;;;7.90;99.90;;;;;;4955541;29;20028;-92
2023/04/02 04:24:26;;;;;;;7.75;6.50;;;8.00;99.90;;;;;;4959462;29;20016;-92
2023/04/02 04:27:32;;;;;;;9.48;5.75;;;8.10;99.90;;;;;;4954358;29;20068;-91
2023/04/02 04:30:18;;;;;;;6.95;6.18;;;8.10;99.90;;;;;;4920659;29;20067;-91
2023/04/02 04:32:56;;;;;;;8.10;6.65;;;8.20;99.90;;;;;;4940261;29;20114;-91
2023/04/02 04:35:30;;;;;;;7.95;6.20;;;8.10;99.90;;;;;;4940645;29;20475;-91
2023/04/02 04:40:35;;;;;;;9.15;6.68;;;8.10;99.90;;;;;;4920217;29;20052;-94
2023/04/02 04:43:06;;;;;;;6.40;5.80;;;8.70;99.90;;;;;;5696605;23;20148;-94
2023/04/02 04:45:40;;;;;;;9.95;6.55;;;8.00;99.90;;;;;;4978921;28;20030;-92
2023/04/02 04:48:20;;;;;;;7.15;5.90;;;7.90;99.90;;;;;;4978806;28;20030;-94
2023/04/02 04:50:51;;;;;;;6.67;4.97;;;7.80;99.90;;;;;;4978470;28;20106;-93
2023/04/02 04:53:20;;;;;;;9.45;5.47;;;7.80;99.90;;;;;;4978089;28;20027;-94
2023/04/02 04:55:49;;;;;;;6.23;5.37;;;7.80;99.90;;;;;;4978210;28;20023;-93
2023/04/02 04:58:20;;;;;;;11.88;5.75;;;7.70;99.90;;;;;;4978745;28;20035;-93
2023/04/02 05:01:15;;;;;;;7.47;5.95;;;7.70;99.90;;;;;;4977623;28;20018;-94
2023/04/02 05:04:03;;;;;;;8.13;6.47;;;7.80;99.90;;;;;;4978060;28;20090;-93
2023/04/02 05:06:48;;;;;;;6.50;5.65;;;7.80;99.90;;;;;;4977744;28;20526;-92
2023/04/02 05:09:18;;;;;;;8.65;6.60;;;7.60;99.90;;;;;;4978104;28;20494;-92
2023/04/02 05:11:50;;;;;;;9.13;6.50;;;7.50;99.90;;;;;;4979403;28;20427;-92
2023/04/02 05:14:35;;;;;;;7.65;5.75;;;7.60;99.90;;;;;;4977668;28;20442;-92
2023/04/02 05:17:09;;;;;;;8.10;5.22;;;7.60;99.90;;;;;;4979034;28;20030;-92
2023/04/02 05:19:49;;;;;;;6.10;5.50;;;7.60;99.90;;;;;;4978144;28;20026;-93
2023/04/02 05:22:24;;;;;;;8.68;6.30;;;7.50;99.90;;;;;;4977235;28;20026;-92
2023/04/02 05:25:17;;;;;;;7.03;5.57;;;7.40;99.90;;;;;;4977643;28;20035;-93
2023/04/02 05:28:10;;;;;;;5.70;5.13;;;7.50;99.90;;;;;;4977558;28;20023;-92
2023/04/02 05:30:52;;;;;;;5.90;5.30;;;7.40;99.90;;;;;;4989589;28;20054;-92
2023/04/02 05:33:18;;;;;;;8.95;5.13;;;7.30;99.90;;;;;;4968766;29;20027;-92
2023/04/02 05:35:48;;;;;;;5.85;5.25;;;7.30;99.90;;;;;;4958890;28;20475;-91
2023/04/02 05:38:22;;;;;;;6.95;4.80;;;7.40;99.90;;;;;;4960351;28;20038;-91
2023/04/02 05:41:05;;;;;;;8.68;4.60;;;7.50;99.90;;;;;;4963756;28;20035;-91
2023/04/02 05:43:33;;;;;;;7.00;5.05;;;7.60;99.90;;;;;;4964646;28;20071;-92
2023/04/02 05:46:06;;;;;;;7.28;4.93;;;7.70;99.90;;;;;;4966865;28;20059;-92
2023/04/02 05:48:37;;;;;;;6.38;4.63;;;7.70;99.90;;;;;;4974007;28;20467;-91
2023/04/02 05:51:07;;;;;;;6.78;5.07;;;7.70;99.90;;;;;;4970192;28;20028;-93
2023/04/02 05:53:44;;;;;;;9.98;5.07;;;7.70;99.90;;;;;;4966129;28;20060;-93
2023/04/02 05:56:15;;;;;;;4.97;4.57;;;7.70;99.90;;;;;;4964532;28;20041;-92
2023/04/02 05:58:49;;;;;;;10.20;5.00;;;7.70;99.90;;;;;;4964869;28;20034;-92
2023/04/02 06:01:28;;;;;;;7.53;4.50;;;7.60;99.90;;;;;;4977012;28;20065;-92
2023/04/02 06:04:09;;;;;;;5.20;4.70;;;7.50;99.90;;;;;;4982043;28;20035;-93
2023/04/02 06:06:38;;;;;;;6.15;4.97;;;7.40;99.90;;;;;;4967052;28;20031;-92
2023/04/02 06:09:22;;;;;;;6.80;4.32;;;7.40;99.90;;;;;;4966665;28;20024;-93
2023/04/02 06:12:01;;;;;;;8.10;4.75;;;7.40;99.90;;;;;;4964844;28;20019;-92
2023/04/02 06:14:26;;;;;;;7.18;4.47;;;7.20;99.90;;;;;;4957574;29;20054;-91
2023/04/02 06:16:52;;;;;;;10.35;5.68;;;7.20;99.90;;;;;;4957047;29;20084;-91
2023/04/02 06:19:26;;;;;;;7.00;4.13;;;7.10;99.90;;;;;;4957006;29;20027;-91
2023/04/02 06:21:59;;;;;;;6.40;4.00;;;7.10;99.90;;;;;;4957507;29;20024;-92
2023/04/02 06:24:26;;;;;;;7.82;4.70;;;7.00;99.90;;;;;;4957256;29;20043;-92
2023/04/02 06:27:01;;;;;;;6.88;3.95;;;6.90;99.90;;;;;;4957295;29;20031;-92
2023/04/02 06:29:38;;;;;;;7.63;3.90;;;6.80;99.90;;;;;;4957375;29;20033;-92
2023/04/02 06:32:07;;;;;;;4.85;3.78;;;6.90;99.90;;;;;;4957282;29;20056;-91
2023/04/02 06:34:36;;;;;;;5.10;3.95;;;6.80;99.90;;;;;;4958275;29;20031;-92
2023/04/02 06:37:22;;;;;;;7.45;3.97;;;6.90;99.90;;;;;;4957317;28;20027;-91
2023/04/02 06:39:48;;;;;;;6.97;4.25;;;7.00;99.90;;;;;;4956479;29;20059;-91
2023/04/02 06:42:47;;;;;;;7.38;4.03;;;6.80;99.90;;;;;;4957100;29;20027;-91
2023/04/02 06:45:21;;;;;;;5.45;4.00;;;6.80;99.90;;;;;;4924516;29;20094;-91
2023/04/02 06:47:50;;;;;;;11.18;3.97;;;6.80;99.90;;;;;;4956616;29;20424;-91
2023/04/02 06:50:25;;;;;;;5.63;3.60;;;6.80;99.90;;;;;;4956652;28;20054;-91
2023/04/02 06:52:57;;;;;;;3.63;3.22;;;6.80;99.90;;;;;;4956511;29;20126;-91
2023/04/02 06:55:45;;;;;;;5.45;3.33;;;6.70;99.90;;;;;;4968247;28;20438;-92
2023/04/02 06:58:11;;;;;;;7.70;3.28;;;6.70;99.90;;;;;;4976517;28;20035;-91
2023/04/02 07:00:45;;;;;;;7.82;3.22;;;6.80;99.90;;;;;;4975446;28;20085;-91
2023/04/02 07:03:28;;;;;;;4.97;3.22;;;6.80;99.90;;;;;;4975776;28;20046;-91
2023/04/02 07:05:55;;;;;;;7.63;4.18;;;6.70;99.90;;;;;;4975773;28;20070;-91
2023/04/02 07:08:20;;;;;;;7.65;3.40;;;6.70;99.90;;;;;;4975664;28;20037;-92
2023/04/02 07:10:46;;;;;;;7.75;4.40;;;6.80;99.90;;;;;;4975655;28;20118;-92
2023/04/02 07:13:20;;;;;;;4.25;3.55;;;6.80;99.90;;;;;;4975828;28;20042;-92
2023/04/02 07:15:48;;;;;;;6.25;3.60;;;6.70;99.90;;;;;;4975820;28;20051;-89
2023/04/02 07:18:27;;;;;;;6.70;3.65;;;6.70;99.90;;;;;;4967555;28;20031;-91
2023/04/02 07:20:53;;;;;;;9.45;3.30;;;6.80;99.90;;;;;;4966346;28;20446;-90
2023/04/02 07:23:19;;;;;;;5.10;3.10;;;6.90;99.90;;;;;;4974285;28;20031;-90
2023/04/02 07:28:21;;;;;;;10.10;3.38;;;6.70;99.90;;;;;;4917152;29;20052;-92
2023/04/02 07:30:53;;;;;;;7.15;3.70;;;7.00;99.90;;;;;;4917346;29;20024;-90
2023/04/02 07:33:29;;;;;;;10.30;4.00;;;6.70;99.90;;;;;;4920981;29;20032;-90
2023/04/02 07:36:07;;;;;;;5.10;3.25;;;7.20;99.90;;;;;;4919889;29;20050;-89
2023/04/02 07:38:42;;;;;;;10.20;4.00;;;6.60;99.90;;;;;;4917669;29;20031;-89
2023/04/02 07:41:08;;;;;;;6.00;3.55;;;7.30;99.90;;;;;;4914665;29;20047;-90
2023/04/02 07:43:34;;;;;;;9.65;3.78;;;6.90;99.90;;;;;;4925308;29;20032;-92
2023/04/02 07:46:16;;;;;;;7.80;3.90;;;7.80;99.90;;;;;;4925963;29;20035;-91
2023/04/02 07:48:43;;;;;;;9.32;4.07;;;7.00;99.90;;;;;;4926942;29;20028;-90
2023/04/02 07:51:25;;;;;;;6.72;3.88;;;7.60;99.90;;;;;;4920752;29;20028;-90
2023/04/02 07:53:54;;;;;;;7.88;4.15;;;7.00;99.90;;;;;;4916306;29;20032;-90
2023/04/02 07:56:26;;;;;;;7.95;4.93;;;7.00;99.90;;;;;;4916714;29;20075;-92
2023/04/02 07:58:51;;;;;;;5.38;3.90;;;6.90;99.90;;;;;;4917342;29;20075;-92
2023/04/02 08:01:35;;;;;;;11.82;3.90;;;7.00;99.90;;;;;;4916608;29;20052;-90
2023/04/02 08:04:03;;;;;;;7.13;3.72;;;7.00;99.90;;;;;;4911700;29;20500;-89
2023/04/02 08:06:43;;;;;;;3.88;3.58;;;7.00;99.90;;;;;;4917237;29;20020;-89
2023/04/02 08:09:09;;;;;;;6.30;3.67;;;6.70;99.90;;;;;;4917482;29;20035;-92
2023/04/02 08:11:37;;;;;;;6.07;3.65;;;6.60;99.90;;;;;;4917948;29;20020;-92
2023/04/02 08:14:03;;;;;;;12.38;4.32;;;7.30;99.90;;;;;;4919046;29;20035;-90
2023/04/02 08:16:54;;;;;;;4.55;3.55;;;7.10;99.90;;;;;;4917853;29;20028;-93
2023/04/02 08:19:21;;;;;;;5.68;3.55;;;6.30;99.90;;;;;;4917958;29;20032;-91
2023/04/02 08:22:04;;;;;;;7.35;3.83;;;7.20;99.90;;;;;;4917604;29;20150;-92
2023/04/02 08:24:52;;;;;;;6.43;3.60;;;6.50;99.90;;;;;;4918710;29;20572;-91
2023/04/02 08:28:08;;;;;;;5.85;3.85;;;6.20;99.90;;;;;;4916912;29;20091;-90
2023/04/02 08:30:52;;;;;;;6.13;3.40;;;6.30;99.90;;;;;;4895658;29;20032;-93
2023/04/02 08:33:37;;;;;;;9.75;3.78;;;6.50;99.90;;;;;;4915622;29;20028;-91
2023/04/02 08:36:02;;;;;;;5.22;3.30;;;6.60;99.90;;;;;;4919085;29;20035;-90
2023/04/02 08:38:28;;;;;;;5.25;3.38;;;6.70;99.90;;;;;;4916132;29;20415;-91
2023/04/02 08:41:00;;;;;;;4.38;2.90;;;6.80;99.90;;;;;;4916449;29;20032;-92
2023/04/02 08:44:10;;;;;;;7.28;3.08;;;7.40;99.90;;;;;;4918477;29;20060;-93
2023/04/02 08:47:29;;;;;;;5.43;3.17;;;6.90;99.90;;;;;;4918067;29;20432;-92
2023/04/02 08:50:08;;;;;;;3.40;2.53;;;7.20;99.90;;;;;;4892549;29;20173;-88
2023/04/02 08:52:36;;;;;;;4.45;2.85;;;6.50;99.90;;;;;;4915389;29;20690;-88
2023/04/02 08:55:25;;;;;;;4.40;2.90;;;6.70;99.90;;;;;;4914254;29;20024;-88
2023/04/02 08:58:13;;;;;;;4.60;2.90;;;6.60;99.90;;;;;;4914200;29;20111;-89
2023/04/02 09:00:58;;;;;;;13.45;3.22;;;6.60;99.90;;;;;;5017501;23;20054;-93
2023/04/02 09:03:48;;;;;;;4.55;2.92;;;6.70;99.90;;;;;;4972214;28;20052;-90
2023/04/02 09:06:33;;;;;;;6.38;2.50;;;6.60;99.90;;;;;;4974385;28;20077;-90
2023/04/02 09:08:59;;;;;;;4.53;2.30;;;7.10;99.90;;;;;;4969438;28;20578;-92
2023/04/02 09:11:46;;;;;;;5.88;2.70;;;7.10;99.90;;;;;;4978633;28;20065;-91
2023/04/02 09:14:23;;;;;;;6.35;2.65;;;6.50;99.90;;;;;;4984325;28;20058;-91
2023/04/02 09:17:14;;;;;;;7.50;3.22;;;6.90;99.90;;;;;;4980496;28;20023;-93
2023/04/02 09:19:43;;;;;;;3.85;3.22;;;6.30;99.90;;;;;;4978023;28;20034;-91
2023/04/02 09:22:25;;;;;;;4.22;2.28;;;6.90;99.90;;;;;;4977216;28;20054;-92
2023/04/02 09:25:10;;;;;;;5.07;2.47;;;6.30;99.90;;;;;;4968976;28;20069;-89
2023/04/02 09:27:36;;;;;;;5.68;2.55;;;6.40;99.90;;;;;;4963717;28;20051;-90
2023/04/02 09:30:23;;;;;;;4.85;2.60;;;7.90;99.90;;;;;;4962904;28;20058;-90
2023/04/02 09:33:11;;;;;;;7.18;2.83;;;6.60;99.90;;;;;;4951304;23;20055;-90
2023/04/02 09:35:58;;;;;;;4.90;2.10;;;6.50;99.90;;;;;;4937479;29;20030;-88
2023/04/02 09:39:15;;;;;;;5.65;3.10;;;6.80;99.90;;;;;;4939330;29;20027;-90
2023/04/02 09:41:59;;;;;;;3.83;2.25;;;6.10;99.90;;;;;;4918567;29;20561;-90
2023/04/02 09:44:40;;;;;;;3.55;2.50;;;7.80;99.90;;;;;;4919514;29;20063;-90
2023/04/02 09:47:34;;;;;;;2.50;2.30;;;7.20;99.90;;;;;;4935984;29;20480;-90
2023/04/02 09:50:40;;;;;;;4.43;2.60;;;6.30;99.90;;;;;;4938909;29;20032;-90
2023/04/02 09:53:29;;;;;;;3.53;2.80;;;6.90;99.90;;;;;;4939946;29;20579;-91
2023/04/02 09:56:10;;;;;;;2.78;2.58;;;7.00;99.90;;;;;;4938304;29;20024;-91
2023/04/02 09:58:43;;;;;;;3.17;2.88;;;7.10;99.90;;;;;;4938964;29;20086;-89
2023/04/02 10:01:43;;;;;;;4.30;3.10;;;8.40;99.90;;;;;;4939322;29;20150;-89
2023/04/02 10:04:30;;;;;;;3.30;3.00;;;7.00;99.90;;;;;;4940721;29;20050;-91
2023/04/02 10:06:57;;;;;;;3.40;3.10;;;7.10;99.90;;;;;;4953935;29;20034;-90
2023/04/02 10:09:32;;;;;;;4.75;3.03;;;7.70;99.90;;;;;;4918698;29;20515;-90
2023/04/02 10:12:12;;;;;;;4.97;3.40;;;7.50;99.90;;;;;;4920068;29;20528;-90
2023/04/02 10:14:47;;;;;;;3.28;3.05;;;7.90;99.90;;;;;;4923613;29;20028;-89
2023/04/02 10:17:35;;;;;;;3.60;3.25;;;8.80;99.90;;;;;;4920586;29;20116;-90
2023/04/02 10:20:25;;;;;;;9.52;3.53;;;7.30;99.90;;;;;;4919431;29;20450;-89
2023/04/02 10:23:02;;;;;;;4.03;3.30;;;7.70;99.90;;;;;;4865059;29;20041;-89
2023/04/02 10:25:44;;;;;;;4.75;3.70;;;7.80;99.90;;;;;;4918461;29;20269;-88
2023/04/02 10:29:10;;;;;;;6.43;3.30;;;8.00;99.90;;;;;;4919083;29;20028;-89
2023/04/02 10:32:00;;;;;;;4.97;3.35;;;7.40;99.90;;;;;;4892690;29;20035;-89
2023/04/02 10:34:55;;;;;;;6.70;3.70;;;7.60;99.90;;;;;;4940062;29;20424;-89
2023/04/02 10:40:58;;;;;;;9.00;3.92;;;7.70;99.90;;;;;;4942106;23;20047;-91
2023/04/02 10:44:22;;;;;;;8.13;3.20;;;7.70;99.90;;;;;;4934584;29;20032;-89
2023/04/02 10:47:14;;;;;;;3.65;2.83;;;7.70;99.90;;;;;;4877816;29;20032;-91
2023/04/02 10:50:05;;;;;;;5.35;2.85;;;8.30;99.90;;;;;;4829990;29;20029;-90
2023/04/02 10:52:50;;;;;;;;;;;7.40;99.90;;;;;;4937812;29;20031;-90
2023/04/02 10:55:24;;;;;;;3.70;2.85;;;8.10;99.90;;;;;;4937302;29;19907;-90
2023/04/02 10:58:21;;;;;;;4.75;2.70;;;7.70;99.90;;;;;;4937835;29;20034;-90
2023/04/02 11:01:00;;;;;;;3.53;2.80;;;8.60;99.90;;;;;;4937013;29;20024;-88
2023/04/02 11:04:01;;;;;;;6.55;2.88;;;7.90;99.90;;;;;;4948924;29;20039;-89
2023/04/02 11:07:02;;;;;;;8.23;2.58;;;8.50;99.90;;;;;;4938004;29;20064;-89
2023/04/02 11:09:32;;;;;;;7.90;2.30;;;8.10;99.90;;;;;;4936363;29;20039;-90
2023/04/02 11:12:00;;;;;;;4.83;2.53;;;9.00;99.90;;;;;;4937442;29;20020;-90
2023/04/02 11:14:43;;;;;;;3.15;1.70;;;8.10;99.90;;;;;;4937023;29;20035;-90
2023/04/02 11:17:38;;;;;;;7.60;2.30;;;8.50;99.90;;;;;;4937811;29;20464;-90
2023/04/02 11:22:36;;;;;;;4.57;2.20;;;8.20;99.90;;;;;;5025236;23;20086;-89
2023/04/02 11:25:22;;;;;;;9.23;2.28;;;8.50;99.90;;;;;;4975268;28;20089;-93
2023/04/02 11:27:48;;;;;;;3.95;2.30;;;8.20;99.90;;;;;;4969026;28;20038;-88
2023/04/02 11:30:33;;;;;;;5.70;2.40;;;9.50;99.90;;;;;;4964865;28;20057;-91
2023/04/02 11:33:23;;;;;;;7.90;2.70;;;8.80;99.90;;;;;;4960974;28;20027;-91
2023/04/02 11:35:52;;;;;;;5.93;3.33;;;8.50;99.90;;;;;;4960363;29;20035;-90
2023/04/02 11:39:05;;;;;;;5.18;2.72;;;8.70;99.90;;;;;;4957089;28;20042;-90
2023/04/02 11:42:32;;;;;;;5.07;2.20;;;8.70;99.90;;;;;;4956939;28;20051;-91
2023/04/02 11:45:24;;;;;;;4.45;1.95;;;8.60;99.90;;;;;;4957090;29;20040;-92
2023/04/02 11:48:18;;;;;;;4.97;2.35;;;8.20;99.90;;;;;;4955958;29;20035;-90
2023/04/02 11:50:45;;;;;;;3.10;1.95;;;8.70;99.90;;;;;;4957609;28;20046;-89
2023/04/02 11:55:57;;;;;;;9.73;2.30;;;9.10;99.90;;;;;;4916509;28;20036;-91
2023/04/02 11:59:09;;;;;;;3.08;2.00;;;9.60;99.90;;;;;;4973308;29;20031;-90
2023/04/02 12:02:02;;;;;;;3.92;2.30;;;8.80;99.90;;;;;;4970693;29;20034;-91
2023/04/02 12:04:33;;;;;;;4.30;2.63;;;8.80;99.90;;;;;;4956498;29;20031;-91
2023/04/02 12:07:34;;;;;;;5.45;2.75;;;9.40;99.90;;;;;;4956074;28;20066;-91
2023/04/02 12:10:20;;;;;;;3.08;2.47;;;8.90;99.90;;;;;;4955680;29;20023;-91
2023/04/02 12:12:58;;;;;;;6.25;2.50;;;9.00;99.90;;;;;;4956193;28;20150;-91
2023/04/02 12:15:49;;;;;;;4.45;2.47;;;9.50;99.90;;;;;;4956098;28;20027;-90
2023/04/02 12:18:45;;;;;;;4.32;2.20;;;9.10;99.90;;;;;;4956242;29;20436;-92
2023/04/02 12:21:27;;;;;;;3.88;2.10;;;9.20;99.90;;;;;;4952899;28;20067;-90
2023/04/02 12:24:14;;;;;;;5.68;2.28;;;9.90;99.90;;;;;;4957172;28;20538;-90
2023/04/02 12:27:02;;;;;;;5.28;2.60;;;9.30;99.90;;;;;;4961341;28;20060;-90
2023/04/02 12:29:28;;;;;;;3.72;2.28;;;9.40;99.90;;;;;;4966122;28;20058;-91
2023/04/02 12:34:52;;;;;;;4.25;2.55;;;9.60;99.90;;;;;;4968027;28;20023;-90
2023/04/02 12:37:43;;;;;;;5.50;2.45;;;9.90;99.90;;;;;;4965023;28;20038;-89
2023/04/02 12:40:17;;;;;;;;;;;9.90;99.90;;;;;;4959015;28;20031;-89
2023/04/02 12:42:43;;;;;;;5.38;2.25;;;9.60;99.90;;;;;;4957490;28;19934;-87
2023/04/02 12:45:23;;;;;;;2.65;1.95;;;9.60;99.90;;;;;;4952194;28;20034;-88
2023/04/02 12:47:49;;;;;;;5.97;2.30;;;9.70;99.90;;;;;;4955169;29;20423;-88
2023/04/02 12:50:16;;;;;;;4.18;2.10;;;9.60;99.90;;;;;;4964237;28;20039;-87
2023/04/02 12:52:46;;;;;;;3.58;2.20;;;9.70;99.90;;;;;;4967130;29;20395;-87
2023/04/02 12:55:30;;;;;;;;;;;9.80;99.90;;;;;;4958780;28;20038;-88
2023/04/02 12:57:57;;;;;;;5.20;2.00;;;9.80;99.90;;;;;;4956433;29;19914;-88
2023/04/02 13:00:26;;;;;;;5.25;2.10;;;9.80;99.90;;;;;;4954315;28;20063;-87
2023/04/02 13:03:00;;;;;;;7.05;2.25;;;9.80;99.90;;;;;;4953809;29;20495;-88
2023/04/02 13:05:36;;;;;;;3.97;2.22;;;9.80;99.90;;;;;;4951747;29;20075;-88
2023/04/02 13:08:03;;;;;;;4.78;2.30;;;9.90;99.90;;;;;;4952048;29;20418;-88
2023/04/02 13:10:29;;;;;;;3.03;2.38;;;9.90;99.90;;;;;;4952334;29;20020;-88
2023/04/02 13:13:02;;;;;;;3.83;2.10;;;10.00;99.90;;;;;;4952723;28;20031;-88
2023/04/02 13:15:35;;;;;;;4.85;2.00;;;10.10;99.90;;;;;;4954124;29;20110;-88
2023/04/02 13:18:04;;;;;;;3.90;1.85;;;10.10;99.90;;;;;;4955576;29;20062;-88
2023/04/02 13:20:40;;;;;;;3.88;2.10;;;10.20;99.90;;;;;;4955740;28;20466;-87
2023/04/02 13:23:27;;;;;;;5.07;2.38;;;10.20;99.90;;;;;;4957598;29;20037;-88
2023/04/02 13:25:58;;;;;;;3.92;1.98;;;10.30;99.90;;;;;;4957694;28;20023;-91
2023/04/02 13:28:23;;;;;;;3.05;2.00;;;10.30;99.90;;;;;;4965698;28;20047;-93
2023/04/02 13:31:08;;;;;;;6.25;2.45;;;10.40;99.90;;;;;;4981596;28;20030;-90
2023/04/02 13:33:34;;;;;;;4.07;2.13;;;10.50;99.90;;;;;;4978333;28;20081;-91
2023/04/02 13:36:02;;;;;;;5.85;2.58;;;10.50;99.90;;;;;;4991918;28;20038;-93
2023/04/02 13:38:42;;;;;;;3.17;2.30;;;10.60;99.90;;;;;;4993659;28;20026;-92
2023/04/02 13:41:31;;;;;;;5.65;2.55;;;11.00;99.90;;;;;;4997350;28;20470;-89
2023/04/02 13:44:20;;;;;;;4.97;2.65;;;10.60;99.90;;;;;;4995522;28;20137;-94
2023/04/02 13:46:47;;;;;;;3.13;2.20;;;11.00;99.90;;;;;;4964953;28;20031;-94
2023/04/02 13:49:25;;;;;;;3.88;2.00;;;10.80;99.90;;;;;;4983766;28;20061;-94
2023/04/02 13:52:17;;;;;;;3.92;2.10;;;11.20;99.90;;;;;;4999133;28;20050;-95
2023/04/02 13:55:07;;;;;;;4.28;1.95;;;10.90;99.90;;;;;;4907369;28;20131;-94
2023/04/02 13:57:51;;;;;;;2.72;2.00;;;10.90;99.90;;;;;;4989622;28;20050;-94
2023/04/02 14:00:40;;;;;;;6.78;2.20;;;10.90;99.90;;;;;;4975556;28;20027;-94
2023/04/02 14:04:05;;;;;;;5.05;2.20;;;10.90;99.90;;;;;;4982019;28;20035;-95
2023/04/02 14:06:51;;;;;;;5.35;2.80;;;10.30;99.90;;;;;;4917993;28;20034;-94
2023/04/02 14:13:17;;;;;;;3.53;2.30;;;11.00;99.90;;;;;;4983910;28;20104;-95